Time;durP1;ratioP1;P1;durP2;ratioP2;P2;SDS_P1;SDS_P2;PMS_P1;PMS_P2;Temp;Humidity;BMP_temperature;BMP_pressure;BME280_temperature;BME280_humidity;BME280_pressure;Samples;Min_cycle;Max_cycle;Signal;HPM_P1;HPM_P2
2023/03/17 00:01:09;;;;;;;0.80;0.68;;;13.50;95.30;;;;;;4979512;28;20128;-87
2023/03/17 00:03:40;;;;;;;0.90;0.60;;;13.50;95.20;;;;;;4997106;28;20017;-88
2023/03/17 00:06:13;;;;;;;0.70;0.60;;;13.40;94.60;;;;;;4993188;28;20612;-87
2023/03/17 00:08:39;;;;;;;1.50;0.60;;;13.40;94.90;;;;;;5008920;28;20024;-86
2023/03/17 00:11:11;;;;;;;0.70;0.60;;;13.30;95.20;;;;;;5015083;28;20037;-88
2023/03/17 00:13:37;;;;;;;1.00;0.70;;;13.30;94.60;;;;;;4994325;28;20025;-89
2023/03/17 00:16:06;;;;;;;0.83;0.70;;;13.30;95.30;;;;;;4991887;28;20029;-87
2023/03/17 00:18:32;;;;;;;1.40;0.70;;;13.20;95.20;;;;;;4996530;28;20522;-88
2023/03/17 00:20:58;;;;;;;0.95;0.75;;;13.20;95.30;;;;;;4979198;28;20037;-87
2023/03/17 00:23:25;;;;;;;0.90;0.80;;;13.10;95.60;;;;;;4981188;28;20372;-88
2023/03/17 00:25:52;;;;;;;1.23;0.80;;;13.10;95.60;;;;;;4978331;28;20115;-89
2023/03/17 00:28:23;;;;;;;1.77;0.80;;;13.10;95.60;;;;;;4998694;28;20072;-89
2023/03/17 00:30:53;;;;;;;1.02;0.70;;;13.10;95.30;;;;;;4993528;28;20499;-89
2023/03/17 00:33:25;;;;;;;0.85;0.60;;;13.00;95.20;;;;;;5013966;28;20063;-87
2023/03/17 00:35:51;;;;;;;0.98;0.70;;;13.00;95.30;;;;;;5005587;28;20209;-88
2023/03/17 00:38:20;;;;;;;2.35;0.90;;;13.00;95.50;;;;;;4992358;28;20529;-87
2023/03/17 00:40:46;;;;;;;1.10;0.70;;;12.90;95.40;;;;;;4987271;28;20701;-89
2023/03/17 00:43:13;;;;;;;1.15;0.77;;;12.90;95.70;;;;;;5017847;28;20549;-87
2023/03/17 00:45:39;;;;;;;0.85;0.70;;;12.90;95.90;;;;;;4960753;28;20074;-87
2023/03/17 00:48:19;;;;;;;1.70;0.88;;;12.80;95.90;;;;;;4998482;28;20450;-88
2023/03/17 00:50:46;;;;;;;1.13;0.80;;;12.80;95.50;;;;;;4987743;28;20018;-88
2023/03/17 00:53:17;;;;;;;1.10;0.80;;;12.80;96.10;;;;;;4992020;28;20057;-87
2023/03/17 00:55:44;;;;;;;1.40;0.98;;;12.80;96.10;;;;;;4987209;28;20052;-87
2023/03/17 00:58:15;;;;;;;0.82;0.63;;;12.90;96.10;;;;;;5001094;28;20033;-86
2023/03/17 01:00:40;;;;;;;1.27;0.70;;;12.80;95.60;;;;;;4990762;28;20031;-87
2023/03/17 01:03:10;;;;;;;1.33;0.70;;;12.80;96.30;;;;;;5015724;28;20034;-87
2023/03/17 01:05:37;;;;;;;1.35;0.80;;;12.90;95.80;;;;;;5005545;28;20025;-87
2023/03/17 01:08:03;;;;;;;0.98;0.70;;;12.90;96.10;;;;;;4989749;28;20026;-87
2023/03/17 01:10:29;;;;;;;0.90;0.80;;;12.90;96.20;;;;;;5012111;28;20038;-87
2023/03/17 01:12:59;;;;;;;1.10;0.70;;;12.90;96.40;;;;;;5009412;28;20022;-88
2023/03/17 01:15:29;;;;;;;1.05;0.70;;;12.90;95.90;;;;;;4975224;28;20383;-87
2023/03/17 01:17:56;;;;;;;0.80;0.60;;;12.90;95.80;;;;;;5013321;28;20076;-89
2023/03/17 01:20:34;;;;;;;1.10;0.63;;;12.90;96.10;;;;;;4999021;28;20031;-87
2023/03/17 01:23:01;;;;;;;1.00;0.80;;;12.90;95.40;;;;;;5010635;28;20021;-88
2023/03/17 01:25:27;;;;;;;0.70;0.63;;;12.90;96.20;;;;;;4979279;28;20701;-87
2023/03/17 01:27:56;;;;;;;1.63;0.70;;;12.90;96.20;;;;;;4970844;28;20196;-88
2023/03/17 01:30:31;;;;;;;1.70;0.80;;;12.90;96.20;;;;;;5013253;28;20044;-87
2023/03/17 01:32:58;;;;;;;1.23;0.60;;;12.80;95.90;;;;;;5007110;28;20143;-87
2023/03/17 01:35:25;;;;;;;1.23;0.70;;;12.80;96.00;;;;;;4976951;28;20041;-87
2023/03/17 01:37:52;;;;;;;1.00;0.70;;;12.80;96.10;;;;;;5020256;28;20627;-88
2023/03/17 01:40:24;;;;;;;1.15;0.70;;;12.80;96.40;;;;;;5010542;28;20036;-89
2023/03/17 01:43:01;;;;;;;1.20;0.90;;;12.70;96.00;;;;;;4989829;28;20025;-87
2023/03/17 01:46:05;;;;;;;2.05;1.10;;;12.80;95.70;;;;;;4987661;28;20262;-87
2023/03/17 01:48:36;;;;;;;0.90;0.65;;;12.80;94.70;;;;;;4989730;28;20035;-87
2023/03/17 01:51:05;;;;;;;0.90;0.70;;;12.80;95.90;;;;;;5014276;28;20112;-87
2023/03/17 01:53:32;;;;;;;1.35;0.60;;;12.80;96.40;;;;;;5001430;28;20017;-87
2023/03/17 01:55:58;;;;;;;1.10;0.80;;;12.80;96.40;;;;;;5008810;28;20702;-87
2023/03/17 01:58:25;;;;;;;1.40;0.70;;;12.80;96.50;;;;;;4987621;28;20715;-89
2023/03/17 02:00:50;;;;;;;2.03;0.90;;;12.80;96.40;;;;;;4993650;28;20022;-88
2023/03/17 02:03:17;;;;;;;1.83;0.80;;;12.80;96.70;;;;;;4966863;28;20033;-88
2023/03/17 02:05:44;;;;;;;1.02;0.70;;;12.70;96.60;;;;;;4990082;28;20151;-89
2023/03/17 02:08:12;;;;;;;1.08;0.73;;;12.80;96.50;;;;;;5005966;28;20021;-87
2023/03/17 02:10:39;;;;;;;1.42;0.75;;;12.80;96.30;;;;;;5008709;28;20187;-87
2023/03/17 02:13:07;;;;;;;0.83;0.70;;;12.70;96.30;;;;;;4996151;28;20119;-88
2023/03/17 02:15:51;;;;;;;2.13;0.90;;;12.70;96.20;;;;;;5004647;28;20021;-87
2023/03/17 02:18:20;;;;;;;1.10;0.80;;;12.80;95.60;;;;;;4995648;28;20044;-87
2023/03/17 02:20:46;;;;;;;1.70;0.90;;;12.80;96.30;;;;;;5009169;28;20105;-88
2023/03/17 02:23:15;;;;;;;1.60;0.90;;;12.80;96.60;;;;;;5009405;28;20037;-89
2023/03/17 02:25:44;;;;;;;1.60;0.80;;;12.70;96.00;;;;;;5009081;28;20483;-88
2023/03/17 02:28:15;;;;;;;1.58;0.77;;;12.70;96.10;;;;;;5009064;28;20043;-87
2023/03/17 02:30:42;;;;;;;1.20;0.70;;;12.70;95.80;;;;;;4974130;28;20307;-87
2023/03/17 02:33:09;;;;;;;1.77;0.75;;;12.70;96.20;;;;;;4971294;28;20057;-87
2023/03/17 02:35:35;;;;;;;0.68;0.65;;;12.60;96.30;;;;;;4989665;28;20029;-88
2023/03/17 02:38:01;;;;;;;1.23;0.73;;;12.60;96.30;;;;;;5003357;28;20403;-87
2023/03/17 02:40:27;;;;;;;0.90;0.70;;;12.60;96.30;;;;;;4989806;28;20018;-87
2023/03/17 02:42:53;;;;;;;1.85;0.90;;;12.60;96.40;;;;;;4993295;28;20034;-87
2023/03/17 02:45:19;;;;;;;1.15;0.70;;;12.50;96.40;;;;;;4971176;28;20235;-90
2023/03/17 02:47:46;;;;;;;1.60;0.90;;;12.50;96.20;;;;;;5011110;28;20021;-87
2023/03/17 02:50:21;;;;;;;0.80;0.80;;;12.50;96.60;;;;;;4988165;28;20025;-88
2023/03/17 02:52:47;;;;;;;1.13;0.88;;;12.50;95.90;;;;;;4997107;28;20530;-87
2023/03/17 02:55:13;;;;;;;0.98;0.70;;;12.50;96.50;;;;;;5003811;28;20240;-89
2023/03/17 02:57:39;;;;;;;1.13;0.70;;;12.40;96.50;;;;;;4997485;28;20395;-87
2023/03/17 03:00:09;;;;;;;0.67;0.60;;;12.40;96.60;;;;;;5014996;28;20053;-87
2023/03/17 03:02:36;;;;;;;1.10;0.70;;;12.40;96.40;;;;;;4982431;28;20108;-87
2023/03/17 03:05:02;;;;;;;1.40;0.80;;;12.40;96.30;;;;;;4975875;28;20377;-87
2023/03/17 03:07:28;;;;;;;1.58;0.75;;;12.30;96.40;;;;;;4983692;28;20025;-89
2023/03/17 03:09:54;;;;;;;1.10;0.80;;;12.30;96.50;;;;;;5009033;28;20544;-87
2023/03/17 03:12:20;;;;;;;0.75;0.63;;;12.30;96.60;;;;;;5031827;28;20088;-87
2023/03/17 03:14:46;;;;;;;1.10;0.80;;;12.30;96.60;;;;;;4999834;28;20021;-86
2023/03/17 03:17:12;;;;;;;1.30;0.80;;;12.30;96.50;;;;;;4973942;28;20302;-86
2023/03/17 03:19:38;;;;;;;1.02;0.70;;;12.30;96.60;;;;;;5000515;28;20577;-86
2023/03/17 03:22:04;;;;;;;0.97;0.73;;;12.20;96.70;;;;;;4980568;28;20097;-87
2023/03/17 03:24:30;;;;;;;0.80;0.60;;;12.20;96.50;;;;;;5015763;28;20076;-86
2023/03/17 03:26:56;;;;;;;1.77;0.70;;;12.30;96.60;;;;;;4996745;28;20911;-87
2023/03/17 03:29:22;;;;;;;1.50;0.80;;;12.20;96.50;;;;;;5013868;28;20101;-87
2023/03/17 03:31:47;;;;;;;1.63;0.90;;;12.30;96.70;;;;;;4975783;28;20095;-87
2023/03/17 03:34:14;;;;;;;1.48;0.73;;;12.20;96.60;;;;;;5013667;28;20220;-86
2023/03/17 03:36:40;;;;;;;1.63;0.70;;;12.30;96.70;;;;;;4992636;28;20089;-87
2023/03/17 03:39:07;;;;;;;1.20;0.70;;;12.20;96.80;;;;;;5013553;28;20060;-87
2023/03/17 03:41:33;;;;;;;1.00;0.63;;;12.20;96.80;;;;;;5009048;28;20017;-88
2023/03/17 03:43:59;;;;;;;0.90;0.63;;;12.20;96.80;;;;;;4992050;28;20028;-87
2023/03/17 03:46:25;;;;;;;1.20;0.70;;;12.20;96.90;;;;;;4992999;28;20088;-90
2023/03/17 03:48:51;;;;;;;0.90;0.65;;;12.20;96.80;;;;;;4982228;28;20022;-87
2023/03/17 03:51:17;;;;;;;0.82;0.73;;;12.30;97.00;;;;;;4993524;28;20267;-87
2023/03/17 03:53:42;;;;;;;1.30;0.67;;;12.20;97.00;;;;;;5004137;28;20022;-86
2023/03/17 03:56:08;;;;;;;0.73;0.65;;;12.20;96.80;;;;;;4992303;28;20272;-87
2023/03/17 03:58:34;;;;;;;0.87;0.70;;;12.20;97.00;;;;;;4977673;28;20037;-88
2023/03/17 04:01:04;;;;;;;1.05;0.75;;;12.20;97.00;;;;;;4971303;28;20033;-87
2023/03/17 04:03:30;;;;;;;1.02;0.60;;;12.20;96.80;;;;;;5009065;28;20026;-88
2023/03/17 04:05:56;;;;;;;2.15;0.80;;;12.30;97.10;;;;;;4992898;28;20033;-87
2023/03/17 04:08:22;;;;;;;0.88;0.70;;;12.20;97.00;;;;;;4994255;28;20098;-88
2023/03/17 04:10:47;;;;;;;1.30;0.80;;;12.20;97.00;;;;;;5010849;28;20034;-88
2023/03/17 04:13:14;;;;;;;1.03;0.70;;;12.20;96.90;;;;;;5006327;28;20060;-87
2023/03/17 04:15:40;;;;;;;1.55;0.82;;;12.20;96.90;;;;;;5010361;28;20163;-88
2023/03/17 04:18:05;;;;;;;1.08;0.68;;;12.20;96.80;;;;;;4992952;28;20029;-87
2023/03/17 04:20:31;;;;;;;1.07;0.77;;;12.20;96.80;;;;;;4978392;28;20028;-88
2023/03/17 04:22:57;;;;;;;0.93;0.70;;;12.10;97.00;;;;;;4974537;28;20057;-87
2023/03/17 04:25:22;;;;;;;0.80;0.70;;;12.10;97.00;;;;;;4979085;28;20442;-87
2023/03/17 04:27:48;;;;;;;1.27;0.70;;;12.10;96.90;;;;;;5009341;28;20584;-86
2023/03/17 04:30:15;;;;;;;1.60;0.60;;;12.10;97.00;;;;;;5012801;28;20517;-87
2023/03/17 04:32:42;;;;;;;0.90;0.80;;;12.00;96.90;;;;;;5015680;28;20719;-87
2023/03/17 04:35:14;;;;;;;0.68;0.52;;;12.00;96.90;;;;;;5007248;28;20068;-87
2023/03/17 04:37:40;;;;;;;1.00;0.80;;;12.10;96.60;;;;;;4996588;28;20239;-87
2023/03/17 04:40:10;;;;;;;2.40;0.50;;;12.00;96.90;;;;;;4996190;28;20037;-88
2023/03/17 04:42:37;;;;;;;0.75;0.70;;;12.00;96.80;;;;;;5006798;28;20561;-87
2023/03/17 04:45:04;;;;;;;1.05;0.65;;;12.00;96.80;;;;;;4986420;28;20479;-87
2023/03/17 04:47:29;;;;;;;1.20;0.70;;;12.00;96.80;;;;;;4995989;28;20029;-87
2023/03/17 04:49:55;;;;;;;0.87;0.70;;;11.90;96.90;;;;;;4989945;28;20442;-86
2023/03/17 04:52:21;;;;;;;1.20;0.77;;;11.90;96.80;;;;;;4993838;28;20311;-87
2023/03/17 04:54:47;;;;;;;0.97;0.70;;;11.90;96.90;;;;;;4993930;28;20470;-87
2023/03/17 04:57:12;;;;;;;1.30;0.70;;;11.80;96.90;;;;;;4997887;28;20018;-87
2023/03/17 04:59:38;;;;;;;1.33;0.70;;;11.80;96.90;;;;;;4969424;28;20123;-88
2023/03/17 05:02:04;;;;;;;1.23;0.90;;;11.80;96.90;;;;;;5016875;28;20385;-87
2023/03/17 05:04:29;;;;;;;0.93;0.63;;;11.80;96.90;;;;;;4987828;28;20569;-87
2023/03/17 05:06:57;;;;;;;1.52;0.80;;;11.80;97.00;;;;;;5012187;28;20068;-87
2023/03/17 05:09:23;;;;;;;1.20;0.80;;;11.80;97.10;;;;;;4987615;28;20033;-86
2023/03/17 05:11:50;;;;;;;1.00;0.70;;;11.80;97.00;;;;;;4997345;28;20021;-88
2023/03/17 05:14:16;;;;;;;1.20;0.70;;;11.80;97.10;;;;;;4989644;28;20048;-87
2023/03/17 05:16:42;;;;;;;1.02;0.80;;;11.80;97.00;;;;;;4997832;28;20244;-86
2023/03/17 05:19:08;;;;;;;1.33;0.70;;;11.80;96.90;;;;;;4999497;28;20648;-87
2023/03/17 05:21:34;;;;;;;1.23;0.60;;;11.70;96.90;;;;;;4983281;28;20051;-88
2023/03/17 05:24:00;;;;;;;2.23;0.80;;;11.70;97.00;;;;;;4993435;28;20029;-87
2023/03/17 05:26:25;;;;;;;1.23;0.80;;;11.70;97.00;;;;;;4988223;28;20045;-87
2023/03/17 05:28:52;;;;;;;1.70;0.77;;;11.70;97.10;;;;;;5015566;28;20017;-87
2023/03/17 05:31:18;;;;;;;1.20;0.67;;;11.70;97.10;;;;;;4985658;28;20113;-87
2023/03/17 05:33:45;;;;;;;1.00;0.60;;;11.60;97.10;;;;;;4975926;28;20145;-87
2023/03/17 05:36:11;;;;;;;0.63;0.60;;;11.60;97.10;;;;;;4986529;28;20394;-87
2023/03/17 05:38:36;;;;;;;0.95;0.80;;;11.60;97.10;;;;;;5008326;28;20518;-87
2023/03/17 05:41:02;;;;;;;1.03;0.70;;;11.60;97.00;;;;;;4960211;28;20242;-87
2023/03/17 05:43:29;;;;;;;1.10;0.63;;;11.60;96.90;;;;;;5008446;28;20131;-87
2023/03/17 05:45:54;;;;;;;0.90;0.70;;;11.50;96.90;;;;;;4987354;28;20010;-87
2023/03/17 05:48:21;;;;;;;1.50;0.63;;;11.50;96.90;;;;;;5011791;28;20091;-87
2023/03/17 05:50:47;;;;;;;1.17;0.70;;;11.50;97.00;;;;;;5011794;28;20033;-87
2023/03/17 05:53:13;;;;;;;0.93;0.80;;;11.50;96.90;;;;;;4996281;28;20314;-87
2023/03/17 05:55:39;;;;;;;0.83;0.70;;;11.50;96.90;;;;;;4989257;28;22148;-87
2023/03/17 05:58:05;;;;;;;0.95;0.60;;;11.40;97.00;;;;;;4995469;28;20034;-87
2023/03/17 06:00:31;;;;;;;1.33;0.60;;;11.40;97.00;;;;;;4982495;28;20103;-87
2023/03/17 06:02:57;;;;;;;0.90;0.70;;;11.40;97.10;;;;;;4982180;28;20103;-87
2023/03/17 06:05:23;;;;;;;1.33;0.75;;;11.40;97.20;;;;;;4988154;28;20381;-87
2023/03/17 06:07:48;;;;;;;1.27;0.90;;;11.40;97.20;;;;;;5001125;28;20316;-87
2023/03/17 06:10:14;;;;;;;1.73;0.70;;;11.40;97.20;;;;;;5006007;28;20025;-88
2023/03/17 06:12:40;;;;;;;0.98;0.60;;;11.40;97.20;;;;;;4996230;28;20033;-87
2023/03/17 06:15:08;;;;;;;1.00;0.80;;;11.40;97.40;;;;;;5002843;28;20079;-87
2023/03/17 06:17:34;;;;;;;1.35;0.90;;;11.40;97.30;;;;;;4988801;28;20029;-87
2023/03/17 06:20:00;;;;;;;1.05;0.73;;;11.40;97.40;;;;;;4985768;28;20465;-87
2023/03/17 06:22:26;;;;;;;0.70;0.70;;;11.30;97.50;;;;;;4987940;28;20239;-87
2023/03/17 06:24:52;;;;;;;2.95;0.80;;;11.40;97.50;;;;;;4980190;28;20521;-88
2023/03/17 06:27:18;;;;;;;1.05;0.80;;;11.40;97.60;;;;;;4996299;28;20056;-87
2023/03/17 06:29:44;;;;;;;1.40;0.80;;;11.40;97.70;;;;;;4991381;28;20680;-87
2023/03/17 06:32:10;;;;;;;1.67;0.90;;;11.40;97.90;;;;;;4990383;28;20045;-87
2023/03/17 06:34:35;;;;;;;1.08;0.80;;;11.40;97.80;;;;;;4978898;28;20489;-86
2023/03/17 06:37:01;;;;;;;0.97;0.70;;;11.50;97.80;;;;;;4997695;28;20451;-88
2023/03/17 06:39:27;;;;;;;1.37;0.97;;;11.50;98.10;;;;;;4981272;28;20287;-87
2023/03/17 06:41:53;;;;;;;1.55;0.90;;;11.50;98.20;;;;;;5001069;28;20025;-87
2023/03/17 06:44:19;;;;;;;1.57;0.83;;;11.60;98.10;;;;;;4996109;28;20036;-87
2023/03/17 06:46:44;;;;;;;1.08;0.80;;;11.60;98.20;;;;;;4985418;28;20133;-87
2023/03/17 06:49:12;;;;;;;1.03;0.73;;;11.60;98.20;;;;;;4996111;28;20026;-88
2023/03/17 06:51:38;;;;;;;1.58;0.80;;;11.70;98.30;;;;;;4992059;28;20029;-87
2023/03/17 06:54:05;;;;;;;1.10;0.80;;;11.70;98.30;;;;;;4984303;28;20032;-88
2023/03/17 06:56:31;;;;;;;1.60;0.80;;;11.80;98.40;;;;;;4979551;28;20030;-88
2023/03/17 06:58:57;;;;;;;2.10;1.10;;;11.80;98.60;;;;;;4977055;28;20377;-87
2023/03/17 07:01:24;;;;;;;2.40;1.05;;;11.90;98.70;;;;;;4991836;28;20112;-89
2023/03/17 07:03:50;;;;;;;1.60;0.90;;;11.90;98.80;;;;;;5010618;28;20712;-87
2023/03/17 07:06:15;;;;;;;1.60;1.00;;;12.00;98.90;;;;;;4994817;28;20018;-87
2023/03/17 07:08:41;;;;;;;1.77;0.90;;;12.00;98.80;;;;;;5013894;28;20677;-87
2023/03/17 07:11:07;;;;;;;1.50;1.00;;;12.10;98.80;;;;;;4977667;28;20333;-87
2023/03/17 07:13:35;;;;;;;1.65;1.10;;;12.20;98.60;;;;;;4967970;28;20048;-87
2023/03/17 07:16:02;;;;;;;3.13;1.02;;;12.20;98.80;;;;;;5011399;28;20075;-88
2023/03/17 07:18:32;;;;;;;1.45;0.80;;;12.30;99.00;;;;;;4982964;28;20025;-87
2023/03/17 07:21:00;;;;;;;1.83;0.97;;;12.30;98.80;;;;;;4996754;28;20018;-87
2023/03/17 07:23:28;;;;;;;1.55;0.80;;;12.40;98.90;;;;;;4971629;28;20107;-87
2023/03/17 07:25:53;;;;;;;1.80;0.80;;;12.50;99.00;;;;;;5000535;28;20028;-87
2023/03/17 07:28:20;;;;;;;1.73;1.00;;;12.60;99.20;;;;;;5002992;28;20153;-87
2023/03/17 07:30:48;;;;;;;1.30;0.87;;;12.60;99.40;;;;;;4993476;28;20229;-88
2023/03/17 07:33:16;;;;;;;1.60;0.90;;;12.70;99.30;;;;;;4995466;28;20431;-87
2023/03/17 07:35:45;;;;;;;3.65;1.10;;;12.80;99.50;;;;;;5014598;28;20191;-88
2023/03/17 07:38:11;;;;;;;2.65;1.20;;;12.90;99.60;;;;;;4998269;28;20037;-87
2023/03/17 07:40:37;;;;;;;2.03;1.13;;;13.00;99.70;;;;;;5000312;28;20036;-87
2023/03/17 07:43:03;;;;;;;2.20;1.25;;;13.00;99.90;;;;;;5000367;28;20033;-88
2023/03/17 07:45:30;;;;;;;2.60;1.10;;;13.10;99.80;;;;;;4973715;28;20041;-89
2023/03/17 07:47:55;;;;;;;1.65;0.95;;;13.30;99.90;;;;;;4993608;28;20014;-88
2023/03/17 07:50:21;;;;;;;1.97;1.10;;;13.40;99.90;;;;;;4990621;28;20405;-87
2023/03/17 07:52:47;;;;;;;1.88;1.08;;;13.60;99.90;;;;;;4999419;28;20030;-89
2023/03/17 07:55:12;;;;;;;2.50;1.27;;;13.80;99.90;;;;;;5007830;28;20022;-87
2023/03/17 07:57:38;;;;;;;2.23;1.20;;;13.90;99.90;;;;;;4986882;28;20029;-89
2023/03/17 08:00:09;;;;;;;2.30;1.10;;;14.10;99.90;;;;;;4969094;28;20021;-87
2023/03/17 08:02:35;;;;;;;2.50;1.27;;;14.30;99.90;;;;;;5008416;28;20226;-87
2023/03/17 08:05:03;;;;;;;2.22;1.30;;;14.50;99.90;;;;;;5014285;28;20401;-88
2023/03/17 08:07:30;;;;;;;2.20;1.02;;;14.60;99.90;;;;;;4985767;28;20014;-88
2023/03/17 08:09:56;;;;;;;1.37;0.97;;;14.80;99.90;;;;;;4996405;28;20490;-87
2023/03/17 08:12:22;;;;;;;2.10;1.30;;;14.90;99.90;;;;;;5001980;28;20289;-86
2023/03/17 08:14:48;;;;;;;2.33;1.30;;;15.00;99.90;;;;;;4978032;28;20029;-89
2023/03/17 08:17:14;;;;;;;2.85;1.30;;;15.20;99.90;;;;;;4999454;28;20305;-87
2023/03/17 08:19:40;;;;;;;1.83;1.17;;;15.30;99.90;;;;;;5008406;28;20484;-88
2023/03/17 08:22:06;;;;;;;2.15;1.15;;;15.50;99.90;;;;;;4997560;28;20152;-88
2023/03/17 08:24:31;;;;;;;2.13;1.30;;;15.60;99.90;;;;;;4994825;28;20303;-88
2023/03/17 08:26:57;;;;;;;2.22;1.10;;;15.80;99.90;;;;;;5009899;28;20041;-87
2023/03/17 08:29:23;;;;;;;1.95;1.10;;;15.90;99.90;;;;;;4995858;28;20449;-87
2023/03/17 08:31:49;;;;;;;2.30;1.40;;;16.00;99.90;;;;;;4979035;28;20034;-89
2023/03/17 08:34:15;;;;;;;1.70;1.20;;;16.10;99.90;;;;;;4996827;28;20059;-87
2023/03/17 08:36:41;;;;;;;2.00;1.13;;;16.20;99.90;;;;;;4987036;28;20558;-88
2023/03/17 08:39:09;;;;;;;2.60;1.20;;;16.20;99.90;;;;;;5012974;28;20037;-87
2023/03/17 08:41:36;;;;;;;1.95;1.15;;;16.20;99.70;;;;;;4995236;28;20514;-88
2023/03/17 08:44:02;;;;;;;2.03;1.10;;;16.10;99.20;;;;;;4998897;28;20111;-89
2023/03/17 08:46:31;;;;;;;2.22;1.20;;;16.10;99.20;;;;;;4977318;28;20202;-89
2023/03/17 08:48:58;;;;;;;2.10;1.10;;;16.00;98.20;;;;;;4995449;28;20129;-87
2023/03/17 08:51:27;;;;;;;2.10;1.30;;;15.90;98.80;;;;;;4982436;28;20372;-86
2023/03/17 08:53:54;;;;;;;2.60;1.30;;;15.80;98.80;;;;;;4983751;28;20451;-87
2023/03/17 08:56:20;;;;;;;1.90;1.30;;;15.80;98.90;;;;;;4998365;28;20037;-87
2023/03/17 08:58:47;;;;;;;2.22;1.23;;;15.70;98.90;;;;;;5003316;28;20029;-87
2023/03/17 09:01:14;;;;;;;2.50;1.48;;;15.70;98.90;;;;;;5008450;28;20025;-86
2023/03/17 09:03:40;;;;;;;2.50;1.40;;;15.70;99.10;;;;;;4969882;28;20232;-88
2023/03/17 09:06:08;;;;;;;2.75;1.30;;;15.70;99.10;;;;;;4999754;28;20058;-88
2023/03/17 09:08:38;;;;;;;1.88;1.17;;;15.70;99.00;;;;;;4993301;28;20230;-88
2023/03/17 09:11:05;;;;;;;2.00;1.20;;;15.70;98.90;;;;;;5015266;28;20026;-87
2023/03/17 09:13:32;;;;;;;1.77;1.20;;;15.70;99.10;;;;;;4961970;28;20161;-88
2023/03/17 09:15:58;;;;;;;2.03;1.10;;;15.70;99.10;;;;;;4990068;28;20445;-88
2023/03/17 09:18:24;;;;;;;2.28;1.40;;;15.70;99.10;;;;;;4992427;28;20033;-87
2023/03/17 09:20:50;;;;;;;2.67;1.23;;;15.70;99.30;;;;;;5015515;28;20041;-88
2023/03/17 09:23:16;;;;;;;2.73;1.30;;;15.70;99.10;;;;;;4991071;28;20407;-88
2023/03/17 09:25:42;;;;;;;3.50;1.40;;;15.70;99.00;;;;;;4998243;28;20609;-87
2023/03/17 09:28:11;;;;;;;2.35;1.15;;;15.70;98.80;;;;;;4997525;28;20118;-87
2023/03/17 09:30:40;;;;;;;2.15;1.00;;;15.70;98.40;;;;;;5004540;28;20021;-87
2023/03/17 09:33:05;;;;;;;2.73;1.10;;;15.70;98.50;;;;;;4962921;28;20427;-87
2023/03/17 09:35:31;;;;;;;2.35;1.15;;;15.70;98.80;;;;;;4995363;28;20024;-87
2023/03/17 09:37:57;;;;;;;2.60;1.27;;;15.70;98.70;;;;;;5011007;28;20025;-86
2023/03/17 09:40:31;;;;;;;3.27;1.30;;;15.70;98.80;;;;;;4995021;28;20264;-87
2023/03/17 09:43:15;;;;;;;2.58;1.40;;;15.70;97.90;;;;;;5013914;28;20785;-88
2023/03/17 09:45:42;;;;;;;3.22;1.42;;;15.70;97.80;;;;;;5006936;28;20124;-86
2023/03/17 09:48:35;;;;;;;2.00;1.30;;;15.70;98.50;;;;;;4995576;28;20025;-87
2023/03/17 09:51:07;;;;;;;1.92;1.23;;;15.70;97.40;;;;;;5015890;28;20043;-87
2023/03/17 09:53:39;;;;;;;2.17;1.20;;;15.70;97.90;;;;;;4974348;28;20747;-87
2023/03/17 09:56:12;;;;;;;1.90;1.20;;;15.80;98.50;;;;;;4981359;28;20117;-88
2023/03/17 09:58:44;;;;;;;1.92;1.13;;;15.80;98.20;;;;;;5011624;28;20040;-88
2023/03/17 10:01:12;;;;;;;2.40;1.10;;;15.80;99.00;;;;;;4985012;28;20304;-87
2023/03/17 10:03:38;;;;;;;2.10;1.27;;;15.80;99.50;;;;;;4959894;28;20282;-88
2023/03/17 10:06:15;;;;;;;2.13;1.50;;;15.90;99.60;;;;;;5013027;28;20418;-87
2023/03/17 10:08:52;;;;;;;2.72;1.40;;;16.00;98.50;;;;;;4987758;28;20120;-88
2023/03/17 10:11:40;;;;;;;2.63;1.42;;;16.10;98.70;;;;;;5013504;28;20032;-87
2023/03/17 10:14:15;;;;;;;2.60;1.20;;;16.20;98.80;;;;;;5003047;28;20040;-87
2023/03/17 10:16:58;;;;;;;2.03;1.20;;;16.50;99.90;;;;;;4987865;28;20025;-88
2023/03/17 10:19:44;;;;;;;2.63;1.10;;;16.80;99.90;;;;;;4994267;28;20479;-87
2023/03/17 10:22:20;;;;;;;3.10;1.27;;;17.20;99.90;;;;;;5015490;28;20029;-88
2023/03/17 10:24:51;;;;;;;2.65;1.30;;;17.70;99.90;;;;;;5013019;28;20498;-89
2023/03/17 10:27:17;;;;;;;3.70;1.15;;;18.00;99.90;;;;;;5017712;28;20042;-88
2023/03/17 10:29:43;;;;;;;2.10;1.30;;;18.30;99.90;;;;;;5001727;28;20044;-87
2023/03/17 10:32:12;;;;;;;2.70;1.30;;;18.60;99.90;;;;;;4991824;28;20025;-88
2023/03/17 10:34:38;;;;;;;2.97;1.40;;;18.90;99.90;;;;;;4979054;28;26725;-87
2023/03/17 10:37:08;;;;;;;2.28;1.52;;;19.20;99.90;;;;;;4985082;28;20372;-87
2023/03/17 10:39:43;;;;;;;2.15;1.30;;;19.40;99.90;;;;;;4996353;28;20026;-87
2023/03/17 10:42:23;;;;;;;2.85;1.48;;;19.80;99.90;;;;;;5002517;28;20037;-87
2023/03/17 10:45:06;;;;;;;2.77;1.30;;;20.10;99.90;;;;;;5016197;28;20402;-89
2023/03/17 10:47:34;;;;;;;2.60;1.30;;;20.50;99.90;;;;;;5000634;28;20303;-87
2023/03/17 10:50:31;;;;;;;1.50;1.27;;;20.80;99.90;;;;;;4998370;28;20048;-88
2023/03/17 10:53:06;;;;;;;2.92;1.23;;;21.10;99.90;;;;;;5019912;28;20037;-87
2023/03/17 10:55:41;;;;;;;2.50;1.40;;;21.50;99.90;;;;;;4994333;28;20052;-86
2023/03/17 10:58:14;;;;;;;2.07;1.33;;;21.80;98.30;;;;;;5017464;28;20049;-88
2023/03/17 11:00:55;;;;;;;2.88;1.35;;;22.10;99.90;;;;;;5015643;28;20502;-88
2023/03/17 11:03:34;;;;;;;2.35;1.40;;;22.40;99.20;;;;;;4984510;28;20025;-87
2023/03/17 11:06:10;;;;;;;2.40;1.33;;;22.70;99.90;;;;;;4996260;28;20104;-87
2023/03/17 11:08:48;;;;;;;2.28;1.52;;;22.90;99.60;;;;;;5014608;28;20239;-88
2023/03/17 11:11:27;;;;;;;1.50;1.23;;;23.10;97.70;;;;;;5014186;28;20036;-88
2023/03/17 11:14:04;;;;;;;2.50;1.40;;;23.20;96.90;;;;;;4994851;28;20033;-86
2023/03/17 11:16:39;;;;;;;2.38;1.35;;;23.30;97.20;;;;;;5031818;28;20513;-87
2023/03/17 11:19:12;;;;;;;2.60;1.60;;;23.50;99.40;;;;;;5006724;28;20487;-88
2023/03/17 11:21:46;;;;;;;2.53;1.15;;;23.60;99.20;;;;;;4998320;28;25230;-89
2023/03/17 11:24:19;;;;;;;2.80;1.50;;;23.70;99.50;;;;;;5018400;28;20025;-88
2023/03/17 11:26:47;;;;;;;2.60;1.30;;;23.70;97.90;;;;;;5008967;28;20045;-87
2023/03/17 11:29:40;;;;;;;1.73;1.30;;;23.70;97.30;;;;;;4998955;28;20060;-88
2023/03/17 11:32:33;;;;;;;1.83;1.17;;;23.80;95.30;;;;;;5013826;28;20031;-87
2023/03/17 11:35:27;;;;;;;2.92;1.30;;;23.80;95.80;;;;;;4995056;28;20123;-86
2023/03/17 11:38:17;;;;;;;2.90;1.40;;;23.90;94.60;;;;;;4977801;28;20026;-85
2023/03/17 11:41:07;;;;;;;2.15;1.23;;;23.90;96.80;;;;;;5008514;28;20041;-87
2023/03/17 11:43:40;;;;;;;2.35;1.40;;;24.00;95.60;;;;;;4979794;28;20121;-86
2023/03/17 11:46:14;;;;;;;2.15;1.50;;;24.00;96.20;;;;;;4994649;28;20049;-87
2023/03/17 11:48:57;;;;;;;1.75;1.30;;;24.00;96.80;;;;;;4994737;28;20126;-88
2023/03/17 11:51:55;;;;;;;2.17;1.17;;;24.10;97.40;;;;;;4991067;28;20080;-86
2023/03/17 11:54:49;;;;;;;3.03;1.35;;;24.10;94.70;;;;;;4985375;28;20406;-87
2023/03/17 11:57:31;;;;;;;2.47;1.20;;;24.10;95.30;;;;;;4976016;28;20030;-86
2023/03/17 12:00:11;;;;;;;2.20;1.40;;;24.20;96.70;;;;;;4992853;28;20052;-87
2023/03/17 12:02:59;;;;;;;3.15;1.17;;;24.10;95.70;;;;;;5011773;28;20089;-87
2023/03/17 12:05:27;;;;;;;2.93;1.50;;;24.20;96.70;;;;;;4989078;28;20128;-86
2023/03/17 12:07:57;;;;;;;1.38;1.20;;;24.20;97.70;;;;;;4978675;28;20614;-87
2023/03/17 12:10:35;;;;;;;2.35;1.40;;;24.20;96.20;;;;;;5003919;28;20033;-86
2023/03/17 12:13:29;;;;;;;2.25;1.40;;;24.20;98.10;;;;;;4995260;28;20026;-87
2023/03/17 12:16:04;;;;;;;2.17;1.30;;;24.20;95.10;;;;;;4995630;28;20036;-87
2023/03/17 12:19:07;;;;;;;2.53;1.50;;;24.30;96.50;;;;;;4993001;28;20026;-87
2023/03/17 12:21:49;;;;;;;1.98;1.20;;;24.40;94.70;;;;;;4993067;28;20454;-85
2023/03/17 12:24:25;;;;;;;1.33;0.90;;;24.50;93.80;;;;;;4958911;28;20018;-87
2023/03/17 12:27:17;;;;;;;3.72;1.35;;;24.60;97.10;;;;;;4994113;28;20069;-87
2023/03/17 12:29:51;;;;;;;2.13;1.33;;;24.70;97.50;;;;;;4984376;28;20204;-88
2023/03/17 12:32:39;;;;;;;2.80;1.60;;;24.80;98.30;;;;;;4977688;28;20026;-87
2023/03/17 12:35:26;;;;;;;3.92;1.60;;;25.00;95.30;;;;;;4994548;28;20278;-85
2023/03/17 12:37:53;;;;;;;2.03;1.10;;;25.10;94.70;;;;;;4997879;28;20032;-88
2023/03/17 12:40:31;;;;;;;1.75;1.17;;;25.20;98.00;;;;;;4972413;28;20129;-87
2023/03/17 12:43:21;;;;;;;1.67;1.20;;;25.20;95.70;;;;;;4990268;28;20267;-86
2023/03/17 12:46:05;;;;;;;1.90;1.20;;;25.10;92.60;;;;;;5010969;28;20535;-88
2023/03/17 12:48:47;;;;;;;2.17;1.45;;;25.00;93.90;;;;;;5008914;28;20470;-89
2023/03/17 12:51:43;;;;;;;3.05;1.40;;;25.00;94.50;;;;;;4987503;28;20084;-87
2023/03/17 12:54:31;;;;;;;2.38;1.50;;;25.00;94.80;;;;;;4992366;28;20049;-87
2023/03/17 12:57:05;;;;;;;2.45;1.20;;;25.00;94.00;;;;;;4975170;28;20595;-88
2023/03/17 12:59:32;;;;;;;2.90;1.40;;;25.10;95.70;;;;;;4992466;28;20561;-89
2023/03/17 13:02:28;;;;;;;3.80;1.70;;;25.30;97.00;;;;;;4979040;28;20491;-88